sensor_id;sensor_type;location;lat;lon;timestamp;temperature;humidity
20483;DHT22;10400;53.198;6.592;2023-11-22T00:02:22;5.60;99.90
20483;DHT22;10400;53.198;6.592;2023-11-22T00:04:48;5.60;99.90
20483;DHT22;10400;53.198;6.592;2023-11-22T00:07:13;5.60;99.90
20483;DHT22;10400;53.198;6.592;2023-11-22T00:09:39;5.50;99.90
20483;DHT22;10400;53.198;6.592;2023-11-22T00:12:05;5.50;99.90
20483;DHT22;10400;53.198;6.592;2023-11-22T00:14:31;5.50;99.90
20483;DHT22;10400;53.198;6.592;2023-11-22T00:16:57;5.50;99.90
20483;DHT22;10400;53.198;6.592;2023-11-22T00:19:22;5.50;99.90
20483;DHT22;10400;53.198;6.592;2023-11-22T00:21:49;5.40;99.90
20483;DHT22;10400;53.198;6.592;2023-11-22T00:24:14;5.40;99.90
20483;DHT22;10400;53.198;6.592;2023-11-22T00:26:40;5.40;99.90
20483;DHT22;10400;53.198;6.592;2023-11-22T00:29:06;5.40;99.90
20483;DHT22;10400;53.198;6.592;2023-11-22T00:31:32;5.30;99.90
20483;DHT22;10400;53.198;6.592;2023-11-22T00:33:58;5.40;99.90
20483;DHT22;10400;53.198;6.592;2023-11-22T00:36:23;5.40;99.90
20483;DHT22;10400;53.198;6.592;2023-11-22T00:38:49;5.30;99.90
20483;DHT22;10400;53.198;6.592;2023-11-22T00:41:15;5.40;99.90
20483;DHT22;10400;53.198;6.592;2023-11-22T00:43:41;5.30;99.90
20483;DHT22;10400;53.198;6.592;2023-11-22T00:46:06;5.30;99.90
20483;DHT22;10400;53.198;6.592;2023-11-22T00:48:32;5.40;99.90
20483;DHT22;10400;53.198;6.592;2023-11-22T00:50:58;5.30;99.90
20483;DHT22;10400;53.198;6.592;2023-11-22T00:53:24;5.30;99.90
20483;DHT22;10400;53.198;6.592;2023-11-22T00:55:50;5.30;99.90
20483;DHT22;10400;53.198;6.592;2023-11-22T00:58:16;5.20;99.90
20483;DHT22;10400;53.198;6.592;2023-11-22T01:00:42;5.10;99.90
20483;DHT22;10400;53.198;6.592;2023-11-22T01:03:08;5.10;99.90
20483;DHT22;10400;53.198;6.592;2023-11-22T01:05:37;5.10;99.90
20483;DHT22;10400;53.198;6.592;2023-11-22T01:08:03;5.00;99.90
20483;DHT22;10400;53.198;6.592;2023-11-22T01:10:28;5.00;99.90
20483;DHT22;10400;53.198;6.592;2023-11-22T01:12:55;4.90;99.90
20483;DHT22;10400;53.198;6.592;2023-11-22T01:15:21;4.90;99.90
20483;DHT22;10400;53.198;6.592;2023-11-22T01:17:47;4.90;99.90
20483;DHT22;10400;53.198;6.592;2023-11-22T01:20:12;4.90;99.90
20483;DHT22;10400;53.198;6.592;2023-11-22T01:22:39;4.90;99.90
20483;DHT22;10400;53.198;6.592;2023-11-22T01:25:05;4.90;99.90
20483;DHT22;10400;53.198;6.592;2023-11-22T01:27:31;4.90;99.90
20483;DHT22;10400;53.198;6.592;2023-11-22T01:29:56;4.80;99.90
20483;DHT22;10400;53.198;6.592;2023-11-22T01:32:22;4.70;99.90
20483;DHT22;10400;53.198;6.592;2023-11-22T01:34:48;4.70;99.90
20483;DHT22;10400;53.198;6.592;2023-11-22T01:37:13;4.70;99.90
20483;DHT22;10400;53.198;6.592;2023-11-22T01:39:40;4.70;99.90
20483;DHT22;10400;53.198;6.592;2023-11-22T01:42:08;4.70;99.90
20483;DHT22;10400;53.198;6.592;2023-11-22T01:44:34;4.60;99.90
20483;DHT22;10400;53.198;6.592;2023-11-22T01:47:01;4.60;99.90
20483;DHT22;10400;53.198;6.592;2023-11-22T01:49:28;4.50;99.90
20483;DHT22;10400;53.198;6.592;2023-11-22T01:51:54;4.50;99.90
20483;DHT22;10400;53.198;6.592;2023-11-22T01:54:22;4.50;99.90
20483;DHT22;10400;53.198;6.592;2023-11-22T01:56:48;4.50;99.90
20483;DHT22;10400;53.198;6.592;2023-11-22T01:59:15;4.50;99.90
20483;DHT22;10400;53.198;6.592;2023-11-22T02:01:43;4.50;99.90
20483;DHT22;10400;53.198;6.592;2023-11-22T02:04:08;4.50;99.90
20483;DHT22;10400;53.198;6.592;2023-11-22T02:06:35;4.50;99.90
20483;DHT22;10400;53.198;6.592;2023-11-22T02:09:01;4.40;99.90
20483;DHT22;10400;53.198;6.592;2023-11-22T02:11:26;4.40;99.90
20483;DHT22;10400;53.198;6.592;2023-11-22T02:13:53;4.40;99.90
20483;DHT22;10400;53.198;6.592;2023-11-22T02:16:19;4.30;99.90
20483;DHT22;10400;53.198;6.592;2023-11-22T02:18:46;4.30;99.90
20483;DHT22;10400;53.198;6.592;2023-11-22T02:21:12;4.30;99.90
20483;DHT22;10400;53.198;6.592;2023-11-22T02:23:38;4.30;99.90
20483;DHT22;10400;53.198;6.592;2023-11-22T02:26:04;4.30;99.90
20483;DHT22;10400;53.198;6.592;2023-11-22T02:28:30;4.30;99.90
20483;DHT22;10400;53.198;6.592;2023-11-22T02:30:55;4.30;99.90
20483;DHT22;10400;53.198;6.592;2023-11-22T02:33:21;4.20;99.90
20483;DHT22;10400;53.198;6.592;2023-11-22T02:35:47;4.20;99.90
20483;DHT22;10400;53.198;6.592;2023-11-22T02:38:12;4.20;99.90
20483;DHT22;10400;53.198;6.592;2023-11-22T02:40:38;4.10;99.90
20483;DHT22;10400;53.198;6.592;2023-11-22T02:43:03;4.10;99.90
20483;DHT22;10400;53.198;6.592;2023-11-22T02:45:34;4.10;99.90
20483;DHT22;10400;53.198;6.592;2023-11-22T02:48:00;4.10;99.90
20483;DHT22;10400;53.198;6.592;2023-11-22T02:50:29;4.10;99.90
20483;DHT22;10400;53.198;6.592;2023-11-22T02:52:57;4.10;99.90
20483;DHT22;10400;53.198;6.592;2023-11-22T02:55:24;4.00;99.90
20483;DHT22;10400;53.198;6.592;2023-11-22T02:57:50;4.10;99.90
20483;DHT22;10400;53.198;6.592;2023-11-22T03:00:16;4.00;99.90
20483;DHT22;10400;53.198;6.592;2023-11-22T03:02:45;4.00;99.90
20483;DHT22;10400;53.198;6.592;2023-11-22T03:05:12;4.00;99.90
20483;DHT22;10400;53.198;6.592;2023-11-22T03:07:40;4.00;99.90
20483;DHT22;10400;53.198;6.592;2023-11-22T03:10:06;3.90;99.90
20483;DHT22;10400;53.198;6.592;2023-11-22T03:12:33;3.90;99.90
20483;DHT22;10400;53.198;6.592;2023-11-22T03:14:59;3.90;99.90
20483;DHT22;10400;53.198;6.592;2023-11-22T03:17:27;3.90;99.90
20483;DHT22;10400;53.198;6.592;2023-11-22T03:19:54;3.90;99.90
20483;DHT22;10400;53.198;6.592;2023-11-22T03:22:26;3.90;99.90
20483;DHT22;10400;53.198;6.592;2023-11-22T03:24:52;3.80;99.90
20483;DHT22;10400;53.198;6.592;2023-11-22T03:27:20;3.70;99.90
20483;DHT22;10400;53.198;6.592;2023-11-22T03:29:49;3.80;99.90
20483;DHT22;10400;53.198;6.592;2023-11-22T03:32:15;3.80;99.90
20483;DHT22;10400;53.198;6.592;2023-11-22T03:34:41;3.70;99.90
20483;DHT22;10400;53.198;6.592;2023-11-22T03:37:06;3.70;99.90
20483;DHT22;10400;53.198;6.592;2023-11-22T03:39:32;3.80;99.90
20483;DHT22;10400;53.198;6.592;2023-11-22T03:41:58;3.70;99.90
20483;DHT22;10400;53.198;6.592;2023-11-22T03:44:23;3.70;99.90
20483;DHT22;10400;53.198;6.592;2023-11-22T03:46:49;3.70;99.90
20483;DHT22;10400;53.198;6.592;2023-11-22T03:49:15;3.60;99.90
20483;DHT22;10400;53.198;6.592;2023-11-22T03:51:42;3.60;99.90
20483;DHT22;10400;53.198;6.592;2023-11-22T03:54:08;3.60;99.90
20483;DHT22;10400;53.198;6.592;2023-11-22T03:56:35;3.60;99.90
20483;DHT22;10400;53.198;6.592;2023-11-22T03:59:01;3.60;99.90
20483;DHT22;10400;53.198;6.592;2023-11-22T04:01:27;3.60;99.90
20483;DHT22;10400;53.198;6.592;2023-11-22T04:03:52;3.50;99.90
20483;DHT22;10400;53.198;6.592;2023-11-22T04:06:19;3.50;99.90
20483;DHT22;10400;53.198;6.592;2023-11-22T04:08:45;3.50;99.90
20483;DHT22;10400;53.198;6.592;2023-11-22T04:11:12;3.50;99.90
20483;DHT22;10400;53.198;6.592;2023-11-22T04:13:38;3.40;99.90
20483;DHT22;10400;53.198;6.592;2023-11-22T04:16:05;3.40;99.90
20483;DHT22;10400;53.198;6.592;2023-11-22T04:18:37;3.40;99.90
20483;DHT22;10400;53.198;6.592;2023-11-22T04:21:03;3.40;99.90
20483;DHT22;10400;53.198;6.592;2023-11-22T04:23:30;3.30;99.90
20483;DHT22;10400;53.198;6.592;2023-11-22T04:25:56;3.30;99.90
20483;DHT22;10400;53.198;6.592;2023-11-22T04:28:24;3.30;99.90
20483;DHT22;10400;53.198;6.592;2023-11-22T04:30:50;3.30;99.90
20483;DHT22;10400;53.198;6.592;2023-11-22T04:33:17;3.30;99.90
20483;DHT22;10400;53.198;6.592;2023-11-22T04:35:43;3.30;99.90
20483;DHT22;10400;53.198;6.592;2023-11-22T04:38:09;3.30;99.90
20483;DHT22;10400;53.198;6.592;2023-11-22T04:40:35;3.30;99.90
20483;DHT22;10400;53.198;6.592;2023-11-22T04:43:00;3.30;99.90
20483;DHT22;10400;53.198;6.592;2023-11-22T04:45:26;3.30;99.90
20483;DHT22;10400;53.198;6.592;2023-11-22T04:47:51;3.20;99.90
20483;DHT22;10400;53.198;6.592;2023-11-22T04:50:17;3.20;99.90
20483;DHT22;10400;53.198;6.592;2023-11-22T04:52:43;3.20;99.90
20483;DHT22;10400;53.198;6.592;2023-11-22T04:55:09;3.20;99.90
20483;DHT22;10400;53.198;6.592;2023-11-22T04:57:35;3.20;99.90
20483;DHT22;10400;53.198;6.592;2023-11-22T05:00:00;3.20;99.90
20483;DHT22;10400;53.198;6.592;2023-11-22T05:02:26;3.20;99.90
20483;DHT22;10400;53.198;6.592;2023-11-22T05:04:53;3.20;99.90
20483;DHT22;10400;53.198;6.592;2023-11-22T05:07:19;3.20;99.90
20483;DHT22;10400;53.198;6.592;2023-11-22T05:09:44;3.20;99.90
20483;DHT22;10400;53.198;6.592;2023-11-22T05:12:10;3.20;99.90
20483;DHT22;10400;53.198;6.592;2023-11-22T05:14:37;3.20;99.90
20483;DHT22;10400;53.198;6.592;2023-11-22T05:17:03;3.30;99.90
20483;DHT22;10400;53.198;6.592;2023-11-22T05:19:29;3.30;99.90
20483;DHT22;10400;53.198;6.592;2023-11-22T05:21:55;3.30;99.90
20483;DHT22;10400;53.198;6.592;2023-11-22T05:24:22;3.20;99.90
20483;DHT22;10400;53.198;6.592;2023-11-22T05:26:47;3.20;99.90
20483;DHT22;10400;53.198;6.592;2023-11-22T05:29:13;3.20;99.90
20483;DHT22;10400;53.198;6.592;2023-11-22T05:31:39;3.30;99.90
20483;DHT22;10400;53.198;6.592;2023-11-22T05:34:04;3.20;99.90
20483;DHT22;10400;53.198;6.592;2023-11-22T05:36:30;3.30;99.90
20483;DHT22;10400;53.198;6.592;2023-11-22T05:38:56;3.20;99.90
20483;DHT22;10400;53.198;6.592;2023-11-22T05:41:27;3.30;99.90
20483;DHT22;10400;53.198;6.592;2023-11-22T05:43:53;3.30;99.90
20483;DHT22;10400;53.198;6.592;2023-11-22T05:46:22;3.30;99.90
20483;DHT22;10400;53.198;6.592;2023-11-22T05:48:53;3.30;99.90
20483;DHT22;10400;53.198;6.592;2023-11-22T05:51:19;3.30;99.90
20483;DHT22;10400;53.198;6.592;2023-11-22T05:53:45;3.30;99.90
20483;DHT22;10400;53.198;6.592;2023-11-22T05:56:11;3.30;99.90
20483;DHT22;10400;53.198;6.592;2023-11-22T05:58:38;3.30;99.90
20483;DHT22;10400;53.198;6.592;2023-11-22T06:01:07;3.30;99.90
20483;DHT22;10400;53.198;6.592;2023-11-22T06:03:34;3.30;99.90
20483;DHT22;10400;53.198;6.592;2023-11-22T06:05:59;3.30;99.90
20483;DHT22;10400;53.198;6.592;2023-11-22T06:08:25;3.30;99.90
20483;DHT22;10400;53.198;6.592;2023-11-22T06:10:51;3.30;99.90
20483;DHT22;10400;53.198;6.592;2023-11-22T06:13:18;3.30;99.90
20483;DHT22;10400;53.198;6.592;2023-11-22T06:15:44;3.30;99.90
20483;DHT22;10400;53.198;6.592;2023-11-22T06:18:10;3.20;99.90
20483;DHT22;10400;53.198;6.592;2023-11-22T06:20:36;3.30;99.90
20483;DHT22;10400;53.198;6.592;2023-11-22T06:23:01;3.30;99.90
20483;DHT22;10400;53.198;6.592;2023-11-22T06:25:27;3.30;99.90
20483;DHT22;10400;53.198;6.592;2023-11-22T06:27:53;3.20;99.90
20483;DHT22;10400;53.198;6.592;2023-11-22T06:30:19;3.20;99.90
20483;DHT22;10400;53.198;6.592;2023-11-22T06:32:45;3.20;99.90
20483;DHT22;10400;53.198;6.592;2023-11-22T06:35:10;3.20;99.90
20483;DHT22;10400;53.198;6.592;2023-11-22T06:37:41;3.20;99.90
20483;DHT22;10400;53.198;6.592;2023-11-22T06:40:07;3.20;99.90
20483;DHT22;10400;53.198;6.592;2023-11-22T06:42:38;3.20;99.90
20483;DHT22;10400;53.198;6.592;2023-11-22T06:45:05;3.20;99.90
20483;DHT22;10400;53.198;6.592;2023-11-22T06:47:32;3.30;99.90
20483;DHT22;10400;53.198;6.592;2023-11-22T06:49:58;3.30;99.90
20483;DHT22;10400;53.198;6.592;2023-11-22T06:52:24;3.30;99.90
20483;DHT22;10400;53.198;6.592;2023-11-22T06:54:49;3.30;99.90
20483;DHT22;10400;53.198;6.592;2023-11-22T06:57:15;3.30;99.90
20483;DHT22;10400;53.198;6.592;2023-11-22T06:59:41;3.30;99.90
20483;DHT22;10400;53.198;6.592;2023-11-22T07:02:06;3.30;99.90
20483;DHT22;10400;53.198;6.592;2023-11-22T07:04:33;3.30;99.90
20483;DHT22;10400;53.198;6.592;2023-11-22T07:06:58;3.30;99.90
20483;DHT22;10400;53.198;6.592;2023-11-22T07:09:24;3.30;99.90
20483;DHT22;10400;53.198;6.592;2023-11-22T07:11:50;3.20;99.90
20483;DHT22;10400;53.198;6.592;2023-11-22T07:14:17;3.20;99.90
20483;DHT22;10400;53.198;6.592;2023-11-22T07:16:42;3.20;99.90
20483;DHT22;10400;53.198;6.592;2023-11-22T07:19:08;3.20;99.90
20483;DHT22;10400;53.198;6.592;2023-11-22T07:21:34;3.30;99.90
20483;DHT22;10400;53.198;6.592;2023-11-22T07:24:04;3.20;99.90
20483;DHT22;10400;53.198;6.592;2023-11-22T07:26:32;3.30;99.90
20483;DHT22;10400;53.198;6.592;2023-11-22T07:28:58;3.40;99.90
20483;DHT22;10400;53.198;6.592;2023-11-22T07:31:24;3.40;99.90
20483;DHT22;10400;53.198;6.592;2023-11-22T07:33:50;3.50;99.90
20483;DHT22;10400;53.198;6.592;2023-11-22T07:36:17;3.40;99.90
20483;DHT22;10400;53.198;6.592;2023-11-22T07:38:43;3.50;99.90
20483;DHT22;10400;53.198;6.592;2023-11-22T07:41:08;3.50;99.90
20483;DHT22;10400;53.198;6.592;2023-11-22T07:43:34;3.60;99.90
20483;DHT22;10400;53.198;6.592;2023-11-22T07:46:05;3.60;99.90
20483;DHT22;10400;53.198;6.592;2023-11-22T07:48:34;3.60;99.90
20483;DHT22;10400;53.198;6.592;2023-11-22T07:51:02;3.60;99.90
20483;DHT22;10400;53.198;6.592;2023-11-22T07:53:28;3.60;99.90
20483;DHT22;10400;53.198;6.592;2023-11-22T07:55:54;3.70;99.90
20483;DHT22;10400;53.198;6.592;2023-11-22T07:58:22;3.70;99.90
20483;DHT22;10400;53.198;6.592;2023-11-22T08:00:47;3.70;99.90
20483;DHT22;10400;53.198;6.592;2023-11-22T08:03:13;3.70;99.90
20483;DHT22;10400;53.198;6.592;2023-11-22T08:05:41;3.80;99.90
20483;DHT22;10400;53.198;6.592;2023-11-22T08:08:06;3.80;99.90
20483;DHT22;10400;53.198;6.592;2023-11-22T08:10:36;3.80;99.90
20483;DHT22;10400;53.198;6.592;2023-11-22T08:13:03;3.80;99.90
20483;DHT22;10400;53.198;6.592;2023-11-22T08:15:29;3.80;99.90
20483;DHT22;10400;53.198;6.592;2023-11-22T08:17:57;3.80;99.90
20483;DHT22;10400;53.198;6.592;2023-11-22T08:20:23;3.80;99.90
20483;DHT22;10400;53.198;6.592;2023-11-22T08:22:50;3.80;99.90
20483;DHT22;10400;53.198;6.592;2023-11-22T08:25:17;3.80;99.90
20483;DHT22;10400;53.198;6.592;2023-11-22T08:27:42;3.80;99.90
20483;DHT22;10400;53.198;6.592;2023-11-22T08:30:09;3.80;99.90
20483;DHT22;10400;53.198;6.592;2023-11-22T08:32:42;3.80;99.90
20483;DHT22;10400;53.198;6.592;2023-11-22T08:35:09;3.80;99.90
20483;DHT22;10400;53.198;6.592;2023-11-22T08:37:35;3.90;99.90
20483;DHT22;10400;53.198;6.592;2023-11-22T08:40:05;3.90;99.90
20483;DHT22;10400;53.198;6.592;2023-11-22T08:42:30;3.90;99.90
20483;DHT22;10400;53.198;6.592;2023-11-22T08:44:56;3.90;99.90
20483;DHT22;10400;53.198;6.592;2023-11-22T08:47:22;4.00;99.90
20483;DHT22;10400;53.198;6.592;2023-11-22T08:49:47;4.00;99.90
20483;DHT22;10400;53.198;6.592;2023-11-22T08:52:14;4.00;99.90
20483;DHT22;10400;53.198;6.592;2023-11-22T08:54:39;3.90;99.90
20483;DHT22;10400;53.198;6.592;2023-11-22T08:57:05;4.10;99.90
20483;DHT22;10400;53.198;6.592;2023-11-22T08:59:31;4.10;99.90
20483;DHT22;10400;53.198;6.592;2023-11-22T09:02:06;4.10;99.90
20483;DHT22;10400;53.198;6.592;2023-11-22T09:04:33;4.10;99.90
20483;DHT22;10400;53.198;6.592;2023-11-22T09:06:59;4.10;99.90
20483;DHT22;10400;53.198;6.592;2023-11-22T09:09:24;4.20;99.90
20483;DHT22;10400;53.198;6.592;2023-11-22T09:11:57;4.10;99.90
20483;DHT22;10400;53.198;6.592;2023-11-22T09:14:23;4.20;99.90
20483;DHT22;10400;53.198;6.592;2023-11-22T09:16:50;4.20;99.90
20483;DHT22;10400;53.198;6.592;2023-11-22T09:19:23;4.20;99.90
20483;DHT22;10400;53.198;6.592;2023-11-22T09:21:50;4.20;99.90
20483;DHT22;10400;53.198;6.592;2023-11-22T09:24:16;4.20;99.90
20483;DHT22;10400;53.198;6.592;2023-11-22T09:26:42;4.20;99.90
20483;DHT22;10400;53.198;6.592;2023-11-22T09:29:09;4.20;99.90
20483;DHT22;10400;53.198;6.592;2023-11-22T09:31:39;4.20;99.90
20483;DHT22;10400;53.198;6.592;2023-11-22T09:34:04;4.30;99.90
20483;DHT22;10400;53.198;6.592;2023-11-22T09:36:30;4.30;99.90
20483;DHT22;10400;53.198;6.592;2023-11-22T09:38:59;4.40;99.90
20483;DHT22;10400;53.198;6.592;2023-11-22T09:41:25;4.50;99.90
20483;DHT22;10400;53.198;6.592;2023-11-22T09:43:53;4.50;99.90
20483;DHT22;10400;53.198;6.592;2023-11-22T09:46:19;4.60;99.90
20483;DHT22;10400;53.198;6.592;2023-11-22T09:48:47;4.60;99.90
20483;DHT22;10400;53.198;6.592;2023-11-22T09:51:27;4.60;99.90
20483;DHT22;10400;53.198;6.592;2023-11-22T09:53:59;4.60;99.90
20483;DHT22;10400;53.198;6.592;2023-11-22T09:56:30;4.70;99.90
20483;DHT22;10400;53.198;6.592;2023-11-22T09:58:59;4.80;99.90
20483;DHT22;10400;53.198;6.592;2023-11-22T10:01:28;4.80;99.90
20483;DHT22;10400;53.198;6.592;2023-11-22T10:03:57;4.80;99.90
20483;DHT22;10400;53.198;6.592;2023-11-22T10:06:23;4.90;99.90
20483;DHT22;10400;53.198;6.592;2023-11-22T10:08:49;4.90;99.90
20483;DHT22;10400;53.198;6.592;2023-11-22T10:11:16;4.90;99.90
20483;DHT22;10400;53.198;6.592;2023-11-22T10:13:51;4.90;99.90
20483;DHT22;10400;53.198;6.592;2023-11-22T10:16:18;5.00;99.90
20483;DHT22;10400;53.198;6.592;2023-11-22T10:18:46;5.00;99.90
20483;DHT22;10400;53.198;6.592;2023-11-22T10:21:38;5.00;99.90
20483;DHT22;10400;53.198;6.592;2023-11-22T10:24:05;5.00;99.90
20483;DHT22;10400;53.198;6.592;2023-11-22T10:26:35;5.10;99.90
20483;DHT22;10400;53.198;6.592;2023-11-22T10:29:01;5.10;99.90
20483;DHT22;10400;53.198;6.592;2023-11-22T10:31:27;5.10;99.90
20483;DHT22;10400;53.198;6.592;2023-11-22T10:33:54;5.10;99.90
20483;DHT22;10400;53.198;6.592;2023-11-22T10:36:22;5.30;99.90
20483;DHT22;10400;53.198;6.592;2023-11-22T10:38:48;5.30;99.90
20483;DHT22;10400;53.198;6.592;2023-11-22T10:41:14;5.40;99.90
20483;DHT22;10400;53.198;6.592;2023-11-22T10:43:40;5.50;99.90
20483;DHT22;10400;53.198;6.592;2023-11-22T10:46:08;5.50;99.90
20483;DHT22;10400;53.198;6.592;2023-11-22T10:48:36;5.70;99.90
20483;DHT22;10400;53.198;6.592;2023-11-22T10:51:03;5.70;99.90
20483;DHT22;10400;53.198;6.592;2023-11-22T10:53:35;5.70;99.90
20483;DHT22;10400;53.198;6.592;2023-11-22T10:56:04;5.80;99.90
20483;DHT22;10400;53.198;6.592;2023-11-22T10:58:32;5.70;99.90
20483;DHT22;10400;53.198;6.592;2023-11-22T11:01:00;5.70;99.90
20483;DHT22;10400;53.198;6.592;2023-11-22T11:03:28;5.70;99.90
20483;DHT22;10400;53.198;6.592;2023-11-22T11:06:02;5.70;99.90
20483;DHT22;10400;53.198;6.592;2023-11-22T11:08:32;5.80;99.90
20483;DHT22;10400;53.198;6.592;2023-11-22T11:10:59;5.80;99.90
20483;DHT22;10400;53.198;6.592;2023-11-22T11:13:27;6.00;99.90
20483;DHT22;10400;53.198;6.592;2023-11-22T11:15:53;6.00;99.90
20483;DHT22;10400;53.198;6.592;2023-11-22T11:18:20;6.10;99.90
20483;DHT22;10400;53.198;6.592;2023-11-22T11:20:56;6.10;99.90
20483;DHT22;10400;53.198;6.592;2023-11-22T11:23:31;6.20;99.90
20483;DHT22;10400;53.198;6.592;2023-11-22T11:25:58;6.30;99.90
20483;DHT22;10400;53.198;6.592;2023-11-22T11:28:27;6.40;99.90
20483;DHT22;10400;53.198;6.592;2023-11-22T11:31:06;6.50;99.90
20483;DHT22;10400;53.198;6.592;2023-11-22T11:33:33;6.50;99.90
20483;DHT22;10400;53.198;6.592;2023-11-22T11:36:02;6.60;99.90
20483;DHT22;10400;53.198;6.592;2023-11-22T11:38:34;6.70;99.90
20483;DHT22;10400;53.198;6.592;2023-11-22T11:41:11;6.50;99.90
20483;DHT22;10400;53.198;6.592;2023-11-22T11:43:44;6.50;99.90
20483;DHT22;10400;53.198;6.592;2023-11-22T11:46:14;6.40;99.90
20483;DHT22;10400;53.198;6.592;2023-11-22T11:48:51;6.40;99.90
20483;DHT22;10400;53.198;6.592;2023-11-22T11:51:19;6.40;99.90
20483;DHT22;10400;53.198;6.592;2023-11-22T11:53:45;6.60;99.90
20483;DHT22;10400;53.198;6.592;2023-11-22T11:56:11;6.60;99.90
20483;DHT22;10400;53.198;6.592;2023-11-22T11:58:37;6.60;99.90
20483;DHT22;10400;53.198;6.592;2023-11-22T12:01:07;6.70;99.70
20483;DHT22;10400;53.198;6.592;2023-11-22T12:03:36;6.50;94.10
20483;DHT22;10400;53.198;6.592;2023-11-22T12:06:02;6.60;96.30
20483;DHT22;10400;53.198;6.592;2023-11-22T12:08:28;6.60;98.70
20483;DHT22;10400;53.198;6.592;2023-11-22T12:10:56;6.50;98.50
20483;DHT22;10400;53.198;6.592;2023-11-22T12:13:24;6.50;94.90
20483;DHT22;10400;53.198;6.592;2023-11-22T12:15:53;6.40;96.50
20483;DHT22;10400;53.198;6.592;2023-11-22T12:18:19;6.40;94.90
20483;DHT22;10400;53.198;6.592;2023-11-22T12:20:58;6.40;93.70
20483;DHT22;10400;53.198;6.592;2023-11-22T12:23:25;6.40;95.00
20483;DHT22;10400;53.198;6.592;2023-11-22T12:26:01;6.40;96.30
20483;DHT22;10400;53.198;6.592;2023-11-22T12:28:29;6.40;99.90
20483;DHT22;10400;53.198;6.592;2023-11-22T12:30:55;6.40;99.10
20483;DHT22;10400;53.198;6.592;2023-11-22T12:33:31;6.20;97.70
20483;DHT22;10400;53.198;6.592;2023-11-22T12:35:57;6.20;99.90
20483;DHT22;10400;53.198;6.592;2023-11-22T12:38:24;6.20;99.90
20483;DHT22;10400;53.198;6.592;2023-11-22T12:40:51;6.20;99.90
20483;DHT22;10400;53.198;6.592;2023-11-22T12:43:17;6.20;99.90
20483;DHT22;10400;53.198;6.592;2023-11-22T12:45:42;6.20;99.90
20483;DHT22;10400;53.198;6.592;2023-11-22T12:48:24;6.20;99.90
20483;DHT22;10400;53.198;6.592;2023-11-22T12:50:51;6.20;99.90
20483;DHT22;10400;53.198;6.592;2023-11-22T12:53:17;6.10;99.90
20483;DHT22;10400;53.198;6.592;2023-11-22T12:55:48;6.10;99.90
20483;DHT22;10400;53.198;6.592;2023-11-22T12:58:16;6.20;99.90
20483;DHT22;10400;53.198;6.592;2023-11-22T13:00:44;6.20;99.90
20483;DHT22;10400;53.198;6.592;2023-11-22T13:03:10;6.20;99.90
20483;DHT22;10400;53.198;6.592;2023-11-22T13:05:37;6.30;99.90
20483;DHT22;10400;53.198;6.592;2023-11-22T13:08:03;6.30;99.90
20483;DHT22;10400;53.198;6.592;2023-11-22T13:10:31;6.30;99.90
20483;DHT22;10400;53.198;6.592;2023-11-22T13:12:57;6.30;99.90
20483;DHT22;10400;53.198;6.592;2023-11-22T13:15:24;6.30;99.90
20483;DHT22;10400;53.198;6.592;2023-11-22T13:17:55;6.30;99.90
20483;DHT22;10400;53.198;6.592;2023-11-22T13:20:25;6.30;99.90
20483;DHT22;10400;53.198;6.592;2023-11-22T13:22:55;6.30;99.90
20483;DHT22;10400;53.198;6.592;2023-11-22T13:25:21;6.30;99.90
20483;DHT22;10400;53.198;6.592;2023-11-22T13:27:50;6.30;99.90
20483;DHT22;10400;53.198;6.592;2023-11-22T13:30:18;6.30;99.90
20483;DHT22;10400;53.198;6.592;2023-11-22T13:32:51;6.20;99.90
20483;DHT22;10400;53.198;6.592;2023-11-22T13:35:17;6.20;99.90
20483;DHT22;10400;53.198;6.592;2023-11-22T13:37:46;6.20;99.90
20483;DHT22;10400;53.198;6.592;2023-11-22T13:40:15;6.20;99.90
20483;DHT22;10400;53.198;6.592;2023-11-22T13:42:45;6.20;99.90
20483;DHT22;10400;53.198;6.592;2023-11-22T13:45:12;6.20;99.90
20483;DHT22;10400;53.198;6.592;2023-11-22T13:47:47;6.10;99.90
20483;DHT22;10400;53.198;6.592;2023-11-22T13:50:14;6.10;99.90
20483;DHT22;10400;53.198;6.592;2023-11-22T13:52:44;6.10;99.90
20483;DHT22;10400;53.198;6.592;2023-11-22T13:55:11;6.10;99.90
20483;DHT22;10400;53.198;6.592;2023-11-22T13:57:38;6.10;99.90
20483;DHT22;10400;53.198;6.592;2023-11-22T14:00:08;6.10;99.90
20483;DHT22;10400;53.198;6.592;2023-11-22T14:02:52;6.00;99.90
20483;DHT22;10400;53.198;6.592;2023-11-22T14:05:26;6.00;99.90
20483;DHT22;10400;53.198;6.592;2023-11-22T14:07:53;6.00;99.90
20483;DHT22;10400;53.198;6.592;2023-11-22T14:10:20;6.00;99.90
20483;DHT22;10400;53.198;6.592;2023-11-22T14:12:50;6.00;99.90
20483;DHT22;10400;53.198;6.592;2023-11-22T14:15:17;5.90;99.90
20483;DHT22;10400;53.198;6.592;2023-11-22T14:17:43;5.90;99.90
20483;DHT22;10400;53.198;6.592;2023-11-22T14:20:12;6.00;99.90
20483;DHT22;10400;53.198;6.592;2023-11-22T14:22:39;5.90;99.90
20483;DHT22;10400;53.198;6.592;2023-11-22T14:25:09;5.90;99.90
20483;DHT22;10400;53.198;6.592;2023-11-22T14:27:44;6.00;99.90
20483;DHT22;10400;53.198;6.592;2023-11-22T14:30:11;6.00;99.90
20483;DHT22;10400;53.198;6.592;2023-11-22T14:32:39;6.00;99.90
20483;DHT22;10400;53.198;6.592;2023-11-22T14:35:07;5.90;99.90
20483;DHT22;10400;53.198;6.592;2023-11-22T14:37:33;6.00;99.90
20483;DHT22;10400;53.198;6.592;2023-11-22T14:39:59;6.00;99.90
20483;DHT22;10400;53.198;6.592;2023-11-22T14:42:25;6.00;99.90
20483;DHT22;10400;53.198;6.592;2023-11-22T14:44:51;6.00;99.90
20483;DHT22;10400;53.198;6.592;2023-11-22T14:47:18;5.90;99.90
20483;DHT22;10400;53.198;6.592;2023-11-22T14:49:49;5.90;99.90
20483;DHT22;10400;53.198;6.592;2023-11-22T14:52:15;5.90;99.90
20483;DHT22;10400;53.198;6.592;2023-11-22T14:54:45;5.90;99.90
20483;DHT22;10400;53.198;6.592;2023-11-22T14:57:11;5.90;99.90
20483;DHT22;10400;53.198;6.592;2023-11-22T14:59:38;5.90;99.90
20483;DHT22;10400;53.198;6.592;2023-11-22T15:02:05;5.90;99.90
20483;DHT22;10400;53.198;6.592;2023-11-22T15:04:34;5.90;99.90
20483;DHT22;10400;53.198;6.592;2023-11-22T15:07:02;5.90;99.90
20483;DHT22;10400;53.198;6.592;2023-11-22T15:09:28;5.90;99.90
20483;DHT22;10400;53.198;6.592;2023-11-22T15:11:53;5.80;99.90
20483;DHT22;10400;53.198;6.592;2023-11-22T15:14:20;5.80;99.90
20483;DHT22;10400;53.198;6.592;2023-11-22T15:16:47;5.80;99.90
20483;DHT22;10400;53.198;6.592;2023-11-22T15:19:13;5.80;99.90
20483;DHT22;10400;53.198;6.592;2023-11-22T15:21:39;5.90;99.90
20483;DHT22;10400;53.198;6.592;2023-11-22T15:24:05;5.90;99.90
20483;DHT22;10400;53.198;6.592;2023-11-22T15:26:31;5.90;99.90
20483;DHT22;10400;53.198;6.592;2023-11-22T15:28:58;5.80;99.90
20483;DHT22;10400;53.198;6.592;2023-11-22T15:31:23;5.80;99.90
20483;DHT22;10400;53.198;6.592;2023-11-22T15:33:49;5.80;99.90
20483;DHT22;10400;53.198;6.592;2023-11-22T15:36:15;5.90;99.90
20483;DHT22;10400;53.198;6.592;2023-11-22T15:38:40;5.90;99.90
20483;DHT22;10400;53.198;6.592;2023-11-22T15:41:06;5.90;99.90
20483;DHT22;10400;53.198;6.592;2023-11-22T15:43:35;5.80;99.90
20483;DHT22;10400;53.198;6.592;2023-11-22T15:46:00;5.80;99.90